Time;durP1;ratioP1;P1;durP2;ratioP2;P2;SDS_P1;SDS_P2;PMS_P1;PMS_P2;Temp;Humidity;BMP_temperature;BMP_pressure;BME280_temperature;BME280_humidity;BME280_pressure;Samples;Min_cycle;Max_cycle;Signal;HPM_P1;HPM_P2
2022/05/15 00:00:52;;;;;;;20.45;7.78;;;10.10;99.90;;;;;;4984433;28;20050;-51
2022/05/15 00:03:23;;;;;;;14.20;5.80;;;10.00;99.90;;;;;;4969584;28;20050;-53
2022/05/15 00:05:58;;;;;;;12.40;4.97;;;10.00;99.90;;;;;;4979417;28;20065;-51
2022/05/15 00:08:26;;;;;;;12.57;5.28;;;9.90;99.90;;;;;;4978560;28;20169;-50
2022/05/15 00:10:52;;;;;;;14.57;5.72;;;9.90;99.90;;;;;;4962842;28;20073;-51
2022/05/15 00:13:20;;;;;;;17.67;6.97;;;9.90;99.90;;;;;;4978790;28;20058;-50
2022/05/15 00:15:46;;;;;;;22.60;7.53;;;10.00;99.90;;;;;;5037998;28;20049;-55
2022/05/15 00:18:12;;;;;;;20.25;8.35;;;10.00;99.90;;;;;;5044228;28;20059;-55
2022/05/15 00:20:39;;;;;;;27.73;9.63;;;10.00;99.90;;;;;;5034393;28;20037;-60
2022/05/15 00:23:06;;;;;;;27.55;10.93;;;10.00;99.90;;;;;;5040891;28;20056;-49
2022/05/15 00:25:32;;;;;;;33.88;9.70;;;10.00;99.90;;;;;;5040362;28;20061;-51
2022/05/15 00:27:59;;;;;;;36.28;11.70;;;10.00;99.90;;;;;;5035507;28;20519;-50
2022/05/15 00:30:26;;;;;;;28.27;11.02;;;10.00;99.90;;;;;;5041176;28;20469;-53
2022/05/15 00:32:51;;;;;;;34.35;12.07;;;10.00;99.90;;;;;;5039045;28;20057;-51
2022/05/15 00:35:18;;;;;;;32.53;12.27;;;10.00;99.90;;;;;;5039657;28;20037;-53
2022/05/15 00:37:44;;;;;;;31.38;11.60;;;10.00;99.90;;;;;;5039700;28;20056;-51
2022/05/15 00:40:11;;;;;;;31.50;10.20;;;9.90;99.90;;;;;;5035475;28;20045;-52
2022/05/15 00:42:37;;;;;;;27.73;10.63;;;9.90;99.90;;;;;;5039136;28;20049;-53
2022/05/15 00:45:05;;;;;;;23.77;8.75;;;9.90;99.90;;;;;;5036351;28;20051;-51
2022/05/15 00:47:30;;;;;;;27.35;9.32;;;9.90;99.90;;;;;;5036133;28;20158;-53
2022/05/15 00:49:57;;;;;;;27.98;10.77;;;9.80;99.90;;;;;;5040247;28;20562;-53
2022/05/15 00:52:27;;;;;;;32.70;12.07;;;9.80;99.90;;;;;;5041082;28;20052;-54
2022/05/15 00:55:04;;;;;;;27.20;10.35;;;9.80;99.90;;;;;;5040696;28;20305;-50
2022/05/15 00:57:43;;;;;;;30.98;11.77;;;9.80;99.90;;;;;;5041123;28;20060;-51
2022/05/15 01:00:14;;;;;;;33.92;11.48;;;9.70;99.90;;;;;;5040196;28;20159;-53
2022/05/15 01:02:51;;;;;;;32.83;10.75;;;9.70;99.90;;;;;;5040925;28;20447;-50
2022/05/15 01:05:17;;;;;;;26.92;10.73;;;9.70;99.90;;;;;;5074597;28;20140;-54
2022/05/15 01:07:43;;;;;;;21.83;8.13;;;9.70;99.90;;;;;;5062610;28;20058;-53
2022/05/15 01:10:10;;;;;;;27.48;9.18;;;9.60;99.90;;;;;;5081364;28;20496;-57
2022/05/15 01:12:40;;;;;;;19.33;7.20;;;9.60;99.90;;;;;;5061914;28;20040;-52
2022/05/15 01:15:09;;;;;;;16.88;7.28;;;9.60;99.90;;;;;;5076818;28;20512;-48
2022/05/15 01:17:34;;;;;;;19.25;7.35;;;9.50;99.90;;;;;;5060518;28;20496;-47
2022/05/15 01:20:07;;;;;;;24.08;9.57;;;9.50;99.90;;;;;;5081362;28;20484;-51
2022/05/15 01:22:33;;;;;;;27.90;9.50;;;9.50;99.90;;;;;;5062703;28;20129;-52
2022/05/15 01:24:59;;;;;;;26.73;9.00;;;9.40;99.90;;;;;;5082693;28;20935;-55
2022/05/15 01:27:25;;;;;;;28.92;10.80;;;9.40;99.90;;;;;;5066653;28;20056;-50
2022/05/15 01:29:51;;;;;;;29.75;10.52;;;9.40;99.90;;;;;;5085991;28;20066;-49
2022/05/15 01:32:17;;;;;;;29.42;9.18;;;9.40;99.90;;;;;;5087759;28;20076;-51
2022/05/15 01:34:43;;;;;;;23.90;9.18;;;9.40;99.90;;;;;;5076154;28;20051;-51
2022/05/15 01:37:09;;;;;;;29.50;10.32;;;9.40;99.90;;;;;;5084525;28;20463;-56
2022/05/15 01:39:36;;;;;;;30.75;10.43;;;9.30;99.90;;;;;;5083964;28;20056;-49
2022/05/15 01:42:03;;;;;;;24.30;8.73;;;9.30;99.90;;;;;;5084977;28;20059;-50
2022/05/15 01:44:31;;;;;;;32.30;10.55;;;9.30;99.90;;;;;;5059305;28;20048;-43
2022/05/15 01:46:57;;;;;;;27.88;10.60;;;9.30;99.90;;;;;;5076432;28;20038;-50
2022/05/15 01:49:22;;;;;;;29.95;11.95;;;9.30;99.90;;;;;;5083867;28;20402;-54
2022/05/15 01:51:48;;;;;;;29.80;9.95;;;9.30;99.90;;;;;;5076932;28;20048;-55
2022/05/15 01:54:15;;;;;;;29.58;10.40;;;9.30;99.90;;;;;;5066542;28;20052;-55
2022/05/15 01:56:42;;;;;;;28.65;10.00;;;9.30;99.90;;;;;;5049755;28;20488;-55
2022/05/15 01:59:09;;;;;;;34.15;10.65;;;9.20;99.90;;;;;;5063227;28;20044;-50
2022/05/15 02:01:35;;;;;;;22.75;8.63;;;9.20;99.90;;;;;;5064254;28;20291;-49
2022/05/15 02:04:01;;;;;;;23.48;8.98;;;9.20;99.90;;;;;;5063502;28;20059;-51
2022/05/15 02:06:28;;;;;;;26.88;9.18;;;9.10;99.90;;;;;;5044910;28;20396;-51
2022/05/15 02:08:55;;;;;;;35.47;10.18;;;9.10;99.90;;;;;;5061962;28;20052;-54
2022/05/15 02:11:22;;;;;;;18.67;6.95;;;9.00;99.90;;;;;;5075260;28;20091;-56
2022/05/15 02:13:47;;;;;;;15.77;5.60;;;9.00;99.90;;;;;;5083927;28;20058;-54
2022/05/15 02:16:13;;;;;;;22.05;7.85;;;9.00;99.90;;;;;;5064354;28;20390;-49
2022/05/15 02:18:39;;;;;;;18.08;6.88;;;9.00;99.90;;;;;;5082321;28;20119;-53
2022/05/15 02:21:05;;;;;;;25.08;8.85;;;9.00;99.90;;;;;;5083069;28;20047;-50
2022/05/15 02:23:31;;;;;;;16.23;6.60;;;8.90;99.90;;;;;;5083698;28;20490;-51
2022/05/15 02:25:58;;;;;;;22.45;8.52;;;8.90;99.90;;;;;;5064307;28;20150;-51
2022/05/15 02:28:24;;;;;;;21.10;7.63;;;8.90;99.90;;;;;;5063990;28;20055;-54
2022/05/15 02:30:54;;;;;;;27.40;10.30;;;8.80;99.90;;;;;;5073546;28;20550;-50
2022/05/15 02:33:21;;;;;;;24.00;10.07;;;8.80;99.90;;;;;;5065849;28;20052;-51
2022/05/15 02:35:47;;;;;;;23.55;8.15;;;8.80;99.90;;;;;;5080270;28;20465;-52
2022/05/15 02:38:12;;;;;;;22.35;8.73;;;8.80;99.90;;;;;;5073212;28;20048;-52
2022/05/15 02:40:38;;;;;;;21.80;8.90;;;8.70;99.90;;;;;;5083860;28;20048;-53
2022/05/15 02:43:04;;;;;;;23.25;10.23;;;8.60;99.90;;;;;;5066476;28;20056;-47
2022/05/15 02:45:31;;;;;;;26.80;9.80;;;8.60;99.90;;;;;;5087757;28;20046;-49
2022/05/15 02:47:56;;;;;;;26.80;9.70;;;8.60;99.90;;;;;;5084294;28;20063;-58
2022/05/15 02:53:07;;;;;;;26.17;10.52;;;8.60;99.90;;;;;;5083704;28;20079;-51
2022/05/15 02:55:33;;;;;;;25.05;9.95;;;8.50;99.90;;;;;;5084043;28;20123;-46
2022/05/15 02:57:59;;;;;;;23.55;9.98;;;8.50;99.90;;;;;;5064518;28;20043;-49
2022/05/15 03:00:27;;;;;;;23.15;8.27;;;8.50;99.90;;;;;;5082058;28;20105;-52
2022/05/15 03:02:53;;;;;;;27.13;9.88;;;8.50;99.90;;;;;;5068264;28;20089;-50
2022/05/15 03:05:21;;;;;;;23.00;8.73;;;8.50;99.90;;;;;;5061527;28;20533;-54
2022/05/15 03:07:47;;;;;;;24.05;9.30;;;8.40;99.90;;;;;;5062034;28;20088;-53
2022/05/15 03:10:16;;;;;;;23.70;9.13;;;8.40;99.90;;;;;;5062149;28;20403;-56
2022/05/15 03:12:42;;;;;;;18.70;8.13;;;8.40;99.90;;;;;;5061273;28;20048;-48
2022/05/15 03:15:13;;;;;;;25.20;8.95;;;8.40;99.90;;;;;;5061086;28;20494;-52
2022/05/15 03:17:39;;;;;;;23.42;8.18;;;8.40;99.90;;;;;;5061453;28;20052;-51
2022/05/15 03:20:05;;;;;;;31.83;9.10;;;8.40;99.90;;;;;;5062541;28;20064;-49
2022/05/15 03:22:32;;;;;;;27.83;9.43;;;8.50;99.90;;;;;;5058427;28;20140;-51
2022/05/15 03:24:57;;;;;;;29.83;9.27;;;8.50;99.90;;;;;;5061621;28;20128;-53
2022/05/15 03:27:23;;;;;;;25.17;9.60;;;8.50;99.90;;;;;;5060370;28;20048;-51
2022/05/15 03:29:49;;;;;;;24.50;8.95;;;8.50;99.90;;;;;;5060431;28;20576;-54
2022/05/15 03:32:16;;;;;;;27.40;9.40;;;8.50;99.90;;;;;;5060882;28;20056;-55
2022/05/15 03:34:41;;;;;;;28.67;9.68;;;8.60;99.90;;;;;;5062002;28;20044;-52
2022/05/15 03:37:07;;;;;;;24.83;9.38;;;8.60;99.90;;;;;;5062987;28;20513;-45
2022/05/15 03:39:33;;;;;;;32.67;10.60;;;8.60;99.90;;;;;;5060825;28;20546;-50
2022/05/15 03:41:59;;;;;;;24.23;8.55;;;8.60;99.90;;;;;;5062319;28;20044;-54
2022/05/15 03:44:25;;;;;;;26.65;9.07;;;8.60;99.90;;;;;;5062208;28;20529;-53
2022/05/15 03:46:51;;;;;;;24.10;9.02;;;8.60;99.90;;;;;;5062641;28;20167;-53
2022/05/15 03:49:17;;;;;;;28.75;9.02;;;8.70;99.90;;;;;;5061260;28;20217;-55
2022/05/15 03:51:43;;;;;;;30.25;9.85;;;8.60;99.90;;;;;;5061546;28;20048;-53
2022/05/15 03:54:09;;;;;;;26.10;9.00;;;8.70;99.90;;;;;;5061765;28;20056;-51
2022/05/15 03:56:51;;;;;;;32.22;10.05;;;8.70;99.90;;;;;;5063969;28;20084;-50
2022/05/15 03:59:34;;;;;;;24.15;8.93;;;8.70;99.90;;;;;;5064788;28;20985;-52
2022/05/15 04:02:00;;;;;;;30.42;9.32;;;8.70;99.90;;;;;;5063226;28;20123;-53
2022/05/15 04:04:27;;;;;;;21.27;8.50;;;8.70;99.90;;;;;;5073186;28;20055;-56
2022/05/15 04:06:52;;;;;;;22.35;8.27;;;8.80;99.90;;;;;;5065246;28;20060;-54
2022/05/15 04:09:18;;;;;;;27.17;9.05;;;8.90;99.90;;;;;;5081420;28;20511;-50
2022/05/15 04:11:44;;;;;;;25.27;8.43;;;8.90;99.90;;;;;;5081513;28;20516;-52
2022/05/15 04:14:10;;;;;;;24.25;9.90;;;9.00;99.90;;;;;;5063160;28;20143;-50
2022/05/15 04:16:36;;;;;;;20.63;7.65;;;9.10;99.90;;;;;;5076456;28;20075;-51
2022/05/15 04:19:03;;;;;;;23.73;8.50;;;9.20;99.90;;;;;;5081123;28;20155;-52
2022/05/15 04:21:36;;;;;;;31.23;8.38;;;9.20;99.90;;;;;;5078595;28;20048;-51
2022/05/15 04:24:06;;;;;;;25.38;8.27;;;9.40;99.90;;;;;;5081062;28;20098;-51
2022/05/15 04:26:32;;;;;;;24.60;8.35;;;9.50;99.90;;;;;;5080081;28;20052;-48
2022/05/15 04:28:58;;;;;;;24.92;8.70;;;9.60;99.90;;;;;;5062782;28;20055;-54
2022/05/15 04:31:24;;;;;;;28.20;9.05;;;9.90;99.90;;;;;;5081532;28;20047;-52
2022/05/15 04:33:50;;;;;;;27.98;9.13;;;10.60;99.90;;;;;;5082001;28;20549;-55
2022/05/15 04:36:15;;;;;;;26.05;9.32;;;11.30;99.90;;;;;;5063137;28;20054;-54
2022/05/15 04:38:41;;;;;;;27.55;9.13;;;12.00;99.90;;;;;;5079455;28;20617;-56
2022/05/15 04:41:07;;;;;;;18.02;7.60;;;12.90;99.90;;;;;;5080539;28;20232;-54
2022/05/15 04:43:32;;;;;;;24.77;8.27;;;13.60;99.90;;;;;;5061526;28;20075;-51
2022/05/15 04:45:58;;;;;;;25.42;8.20;;;14.30;99.90;;;;;;5060930;28;20067;-51
2022/05/15 04:48:24;;;;;;;26.35;9.55;;;15.00;99.90;;;;;;5062656;28;20080;-54
2022/05/15 04:50:50;;;;;;;22.45;8.60;;;15.50;99.90;;;;;;5063102;28;20121;-54
2022/05/15 04:53:15;;;;;;;27.52;8.50;;;16.10;99.90;;;;;;5080535;28;20080;-52
2022/05/15 04:55:41;;;;;;;22.38;8.02;;;16.60;99.90;;;;;;5079958;28;20372;-53
2022/05/15 04:58:07;;;;;;;23.13;7.75;;;17.20;99.90;;;;;;5078882;28;20390;-49
2022/05/15 05:00:32;;;;;;;30.38;8.60;;;17.80;99.90;;;;;;5065049;28;20047;-50
2022/05/15 05:02:58;;;;;;;22.50;7.63;;;18.30;99.90;;;;;;5067682;28;20055;-53
2022/05/15 05:05:24;;;;;;;21.35;8.25;;;18.80;99.90;;;;;;5085146;28;20512;-54
2022/05/15 05:07:50;;;;;;;25.25;9.02;;;19.40;99.90;;;;;;5065998;28;20506;-53
2022/05/15 05:10:16;;;;;;;22.77;8.43;;;19.70;99.90;;;;;;5085755;28;20047;-51
2022/05/15 05:12:42;;;;;;;22.23;8.55;;;20.10;99.90;;;;;;5067551;28;20548;-51
2022/05/15 05:15:13;;;;;;;21.42;7.25;;;20.50;99.90;;;;;;5088501;28;20051;-53
2022/05/15 05:17:40;;;;;;;17.83;8.20;;;21.00;99.90;;;;;;5066213;28;20048;-56
2022/05/15 05:20:07;;;;;;;19.95;7.53;;;21.30;99.90;;;;;;5084547;28;20398;-52
2022/05/15 05:22:32;;;;;;;20.63;7.93;;;21.60;99.80;;;;;;5080580;28;20506;-50
2022/05/15 05:24:58;;;;;;;24.58;9.45;;;21.80;98.60;;;;;;5085380;28;20044;-55
2022/05/15 05:27:24;;;;;;;16.98;7.40;;;22.00;97.50;;;;;;5082251;28;20126;-53
2022/05/15 05:29:50;;;;;;;22.58;8.43;;;22.60;97.70;;;;;;5084554;28;20506;-56
2022/05/15 05:32:16;;;;;;;21.50;8.38;;;22.70;96.70;;;;;;5064584;28;20052;-55
2022/05/15 05:34:42;;;;;;;22.05;7.90;;;23.20;96.10;;;;;;5083503;28;20091;-51
2022/05/15 05:37:08;;;;;;;21.65;8.48;;;23.30;95.30;;;;;;5083760;28;20538;-47
2022/05/15 05:39:34;;;;;;;20.30;8.48;;;23.70;94.90;;;;;;5084519;28;20059;-56
2022/05/15 05:42:03;;;;;;;19.50;7.82;;;24.30;94.10;;;;;;5084704;28;20055;-50
2022/05/15 05:44:29;;;;;;;20.02;8.10;;;24.30;93.40;;;;;;5066245;28;20052;-55
2022/05/15 05:46:54;;;;;;;21.15;8.20;;;24.60;92.80;;;;;;5062096;28;20078;-51
2022/05/15 05:49:20;;;;;;;25.42;8.18;;;24.90;92.30;;;;;;5055773;28;20048;-52
2022/05/15 05:51:46;;;;;;;21.58;8.63;;;25.30;91.60;;;;;;5084015;28;20163;-55
2022/05/15 05:54:13;;;;;;;25.58;8.57;;;25.20;90.70;;;;;;5085063;28;20153;-55
2022/05/15 05:56:39;;;;;;;22.77;8.45;;;25.70;90.50;;;;;;5065918;28;20048;-54
2022/05/15 05:59:05;;;;;;;27.77;8.85;;;26.10;90.30;;;;;;5080127;28;20047;-49
2022/05/15 06:01:30;;;;;;;19.00;8.40;;;26.10;89.40;;;;;;5066328;28;20082;-53
2022/05/15 06:06:40;;;;;;;20.05;8.70;;;26.50;86.50;;;;;;5062580;28;20048;-55
2022/05/15 06:09:06;;;;;;;22.13;8.60;;;26.20;85.50;;;;;;5061777;28;20044;-54
2022/05/15 06:11:32;;;;;;;17.65;8.02;;;26.60;86.30;;;;;;5063704;28;20091;-55
2022/05/15 06:13:57;;;;;;;29.20;9.80;;;26.90;85.80;;;;;;5064774;28;20086;-52
2022/05/15 06:16:25;;;;;;;21.60;8.90;;;27.60;83.70;;;;;;5064682;28;20075;-54
2022/05/15 06:18:51;;;;;;;18.65;8.25;;;27.30;81.80;;;;;;5064321;28;20151;-48
2022/05/15 06:21:17;;;;;;;19.27;7.65;;;27.40;81.50;;;;;;5064152;28;20126;-55
2022/05/15 06:23:43;;;;;;;17.85;7.38;;;27.40;80.00;;;;;;5065328;28;20131;-55
2022/05/15 06:26:08;;;;;;;22.55;8.75;;;27.90;80.20;;;;;;5062005;28;20117;-53
2022/05/15 06:28:34;;;;;;;18.92;8.52;;;27.90;78.60;;;;;;5063675;28;20223;-53
2022/05/15 06:31:01;;;;;;;20.80;7.88;;;28.10;77.80;;;;;;5065870;28;20053;-53
2022/05/15 06:33:27;;;;;;;20.90;8.65;;;28.00;77.40;;;;;;5064838;28;20060;-57
2022/05/15 06:35:53;;;;;;;18.80;7.68;;;27.60;76.50;;;;;;5063960;28;20098;-56
2022/05/15 06:38:19;;;;;;;19.33;8.10;;;27.50;77.00;;;;;;5061215;28;20134;-57
2022/05/15 06:40:45;;;;;;;17.23;7.90;;;27.30;77.20;;;;;;5062386;28;20052;-52
2022/05/15 06:43:11;;;;;;;22.40;9.38;;;27.10;78.40;;;;;;5060900;28;20050;-55
2022/05/15 06:45:36;;;;;;;20.13;7.50;;;27.10;77.60;;;;;;5058588;28;20048;-51
2022/05/15 06:48:03;;;;;;;16.67;7.85;;;27.10;78.90;;;;;;5058365;28;20052;-55
2022/05/15 06:50:28;;;;;;;19.85;7.60;;;27.60;76.90;;;;;;5060970;28;20044;-55
2022/05/15 06:52:54;;;;;;;20.40;8.45;;;27.80;76.40;;;;;;5057787;28;20044;-54
2022/05/15 06:55:22;;;;;;;22.17;8.70;;;27.80;77.40;;;;;;5063030;28;20051;-55
2022/05/15 06:57:50;;;;;;;17.45;7.93;;;27.80;75.70;;;;;;5062279;28;20059;-52
2022/05/15 07:00:23;;;;;;;16.73;6.82;;;27.60;75.70;;;;;;5060389;28;20138;-53
2022/05/15 07:02:49;;;;;;;18.13;7.60;;;27.80;75.70;;;;;;5062278;28;20585;-56
2022/05/15 07:05:30;;;;;;;17.35;7.50;;;27.90;75.40;;;;;;5076740;28;20052;-55
2022/05/15 07:07:56;;;;;;;18.73;7.80;;;27.60;75.00;;;;;;5057187;28;20048;-52
2022/05/15 07:10:23;;;;;;;24.23;7.50;;;26.80;75.70;;;;;;5080181;28;20441;-52
2022/05/15 07:12:50;;;;;;;21.65;8.00;;;25.70;78.00;;;;;;5059148;28;20126;-52
2022/05/15 07:15:16;;;;;;;17.05;8.57;;;25.10;78.30;;;;;;5082220;28;20052;-56
2022/05/15 07:17:41;;;;;;;20.70;7.50;;;24.40;79.20;;;;;;5073570;28;20345;-55
2022/05/15 07:20:07;;;;;;;16.45;7.85;;;23.90;81.20;;;;;;5082675;28;20409;-56
2022/05/15 07:22:33;;;;;;;16.20;7.95;;;23.80;82.00;;;;;;5081701;28;20043;-54
2022/05/15 07:25:00;;;;;;;18.60;7.63;;;23.70;81.60;;;;;;5081806;28;20044;-51
2022/05/15 07:27:25;;;;;;;17.48;6.68;;;23.40;82.50;;;;;;5063271;28;20534;-53
2022/05/15 07:29:51;;;;;;;17.58;7.00;;;23.20;83.40;;;;;;5082601;28;20101;-53
2022/05/15 07:32:17;;;;;;;19.30;8.07;;;23.10;83.90;;;;;;5081420;28;20418;-55
2022/05/15 07:34:42;;;;;;;16.67;6.78;;;22.80;83.70;;;;;;5082144;28;20052;-56
2022/05/15 07:37:08;;;;;;;18.60;7.40;;;22.60;84.40;;;;;;5081795;28;20040;-54
2022/05/15 07:39:34;;;;;;;18.30;7.50;;;22.40;84.70;;;;;;5046675;28;20130;-47
2022/05/15 07:42:00;;;;;;;16.55;6.53;;;22.00;84.10;;;;;;5082431;28;20044;-48
2022/05/15 07:44:26;;;;;;;19.60;6.63;;;21.70;84.90;;;;;;5082497;28;20047;-54
2022/05/15 07:46:51;;;;;;;20.73;7.57;;;21.30;85.20;;;;;;5083434;28;20051;-53
2022/05/15 07:49:17;;;;;;;19.92;6.95;;;21.20;86.40;;;;;;5084692;28;20047;-54
2022/05/15 07:51:44;;;;;;;21.60;7.05;;;21.10;87.60;;;;;;5083230;28;20047;-54
2022/05/15 07:54:18;;;;;;;17.17;6.20;;;21.30;89.60;;;;;;5064157;28;20799;-58
2022/05/15 07:56:44;;;;;;;22.38;7.35;;;21.20;88.90;;;;;;5082697;28;20105;-56
2022/05/15 07:59:14;;;;;;;21.17;6.70;;;21.20;88.00;;;;;;5046256;28;20067;-54
2022/05/15 08:01:41;;;;;;;19.17;5.80;;;21.20;87.80;;;;;;5081679;28;20491;-57
2022/05/15 08:04:06;;;;;;;20.88;7.03;;;21.10;88.70;;;;;;5062794;28;20581;-53
2022/05/15 08:09:18;;;;;;;18.92;5.93;;;21.20;88.40;;;;;;5081388;28;20117;-53
2022/05/15 08:11:44;;;;;;;16.17;6.32;;;21.20;88.00;;;;;;5081554;28;20102;-52
2022/05/15 08:14:10;;;;;;;21.92;7.53;;;21.40;88.20;;;;;;5081452;28;20611;-54
2022/05/15 08:16:38;;;;;;;18.60;5.82;;;21.20;88.40;;;;;;5081531;28;20090;-53
2022/05/15 08:24:54;;;;;;;17.30;6.05;;;21.00;89.70;;;;;;4997760;28;20058;-54
2022/05/15 08:27:20;;;;;;;19.17;6.20;;;21.10;89.70;;;;;;4997569;28;20488;-56
2022/05/15 08:29:46;;;;;;;17.63;6.72;;;21.20;89.00;;;;;;5001854;28;20045;-53
2022/05/15 08:32:12;;;;;;;21.15;6.60;;;21.30;88.80;;;;;;4998068;28;20058;-55
2022/05/15 08:34:37;;;;;;;20.33;5.30;;;21.20;89.00;;;;;;4998357;28;20115;-52
2022/05/15 08:37:04;;;;;;;16.90;5.82;;;21.30;87.20;;;;;;4982339;28;20069;-55
2022/05/15 08:39:30;;;;;;;18.48;6.15;;;21.10;86.30;;;;;;4999701;28;20097;-54
2022/05/15 08:42:03;;;;;;;17.15;6.13;;;20.90;87.30;;;;;;4981852;28;20053;-51
2022/05/15 08:44:34;;;;;;;17.63;5.90;;;21.00;88.20;;;;;;4998238;28;20064;-55
2022/05/15 08:47:17;;;;;;;17.85;6.38;;;20.90;87.80;;;;;;4997262;28;20058;-53
2022/05/15 08:50:00;;;;;;;16.73;5.85;;;20.70;86.30;;;;;;4998626;28;20098;-52
2022/05/15 08:52:34;;;;;;;18.80;6.57;;;20.70;88.40;;;;;;4991072;28;20054;-52
2022/05/15 08:55:09;;;;;;;19.60;6.00;;;20.70;88.10;;;;;;4994302;28;20053;-52
2022/05/15 08:57:52;;;;;;;15.10;5.18;;;20.60;87.70;;;;;;4998040;28;20054;-46
2022/05/15 09:00:27;;;;;;;;;;;20.60;88.40;;;;;;5081072;28;20491;-54
2022/05/15 09:02:55;;;;;;;18.80;5.72;;;20.90;89.70;;;;;;5081404;28;19935;-54
2022/05/15 09:05:21;;;;;;;17.48;5.93;;;21.10;89.10;;;;;;5081349;28;20127;-54
2022/05/15 09:08:17;;;;;;;19.73;6.10;;;21.10;87.40;;;;;;5080516;28;20447;-57
2022/05/15 09:11:00;;;;;;;20.17;6.03;;;21.10;87.40;;;;;;5060807;28;20055;-53
2022/05/15 09:13:38;;;;;;;;;;;21.10;87.60;;;;;;5083145;28;20059;-52
2022/05/15 09:16:07;;;;;;;18.58;5.85;;;21.20;85.90;;;;;;5083063;28;19982;-52
2022/05/15 09:18:37;;;;;;;13.50;4.88;;;21.30;90.10;;;;;;5080746;28;20131;-57
2022/05/15 09:21:09;;;;;;;16.85;6.05;;;21.60;89.20;;;;;;5076954;28;20060;-53
2022/05/15 09:23:40;;;;;;;19.80;6.45;;;21.70;86.80;;;;;;5062848;28;20620;-51
2022/05/15 09:26:06;;;;;;;18.63;6.03;;;21.60;86.00;;;;;;5062057;28;20054;-53
2022/05/15 09:29:01;;;;;;;18.67;6.18;;;21.50;86.20;;;;;;5062105;28;20060;-56
2022/05/15 09:31:42;;;;;;;20.48;6.22;;;21.50;86.60;;;;;;5080687;28;20055;-54
2022/05/15 09:34:13;;;;;;;17.23;6.00;;;21.50;86.90;;;;;;5079745;28;20052;-46
2022/05/15 09:36:44;;;;;;;16.63;5.75;;;21.60;85.10;;;;;;5080962;28;20081;-55
2022/05/15 09:39:16;;;;;;;20.75;6.10;;;21.50;86.30;;;;;;5080408;28;20050;-51
2022/05/15 09:44:36;;;;;;;18.25;6.05;;;21.50;85.90;;;;;;5079075;28;20104;-50
2022/05/15 09:47:37;;;;;;;15.80;5.50;;;21.60;86.20;;;;;;5083176;28;20040;-57
2022/05/15 09:50:04;;;;;;;17.75;6.88;;;21.70;90.00;;;;;;5083603;28;20612;-54
2022/05/15 09:52:35;;;;;;;25.02;6.90;;;21.70;86.50;;;;;;5064535;28;20059;-55
2022/05/15 09:55:21;;;;;;;19.98;6.70;;;21.70;86.70;;;;;;5060886;28;20055;-55
2022/05/15 09:57:59;;;;;;;20.58;5.90;;;21.80;86.50;;;;;;5064532;28;20056;-56
2022/05/15 10:00:29;;;;;;;25.05;7.15;;;21.70;86.70;;;;;;5064883;28;20055;-56
2022/05/15 10:03:03;;;;;;;15.63;6.00;;;21.80;86.00;;;;;;5084051;28;20047;-55
2022/05/15 10:05:31;;;;;;;17.80;5.88;;;21.70;85.50;;;;;;5065128;28;20048;-55
2022/05/15 10:07:57;;;;;;;20.75;5.70;;;21.50;85.70;;;;;;5082099;28;20056;-56
2022/05/15 10:10:30;;;;;;;21.98;5.95;;;21.40;86.50;;;;;;5084245;28;20043;-55
2022/05/15 10:13:09;;;;;;;19.25;5.75;;;21.50;88.90;;;;;;5084245;28;20941;-53
2022/05/15 10:15:46;;;;;;;20.13;6.00;;;21.70;88.20;;;;;;5084256;28;20522;-52
2022/05/15 10:18:18;;;;;;;15.45;6.07;;;21.90;87.80;;;;;;5065169;28;20095;-52
2022/05/15 10:20:46;;;;;;;21.10;6.70;;;22.20;88.20;;;;;;5065562;28;20054;-57
2022/05/15 10:23:16;;;;;;;16.75;5.78;;;22.30;87.10;;;;;;5083773;28;20035;-49
2022/05/15 10:25:49;;;;;;;15.35;5.05;;;22.30;85.80;;;;;;5082556;28;20052;-54
2022/05/15 10:28:35;;;;;;;22.85;6.57;;;22.30;85.30;;;;;;5083375;28;20055;-56
2022/05/15 10:31:07;;;;;;;16.63;6.13;;;22.50;86.30;;;;;;5084345;28;20072;-53
2022/05/15 10:33:39;;;;;;;14.57;6.40;;;22.40;84.40;;;;;;5084221;28;20410;-56
2022/05/15 10:36:10;;;;;;;18.13;6.53;;;22.30;85.00;;;;;;5084048;28;20044;-51
2022/05/15 10:39:02;;;;;;;16.05;5.68;;;22.50;85.40;;;;;;5084452;28;20801;-55
2022/05/15 10:41:45;;;;;;;18.15;6.15;;;22.50;83.10;;;;;;5068699;28;20048;-54
2022/05/15 10:44:31;;;;;;;13.85;5.80;;;22.50;82.80;;;;;;5082948;28;20056;-56
2022/05/15 10:47:04;;;;;;;17.58;5.43;;;22.40;83.20;;;;;;5065131;28;20106;-57
2022/05/15 10:49:46;;;;;;;;;;;22.40;84.80;;;;;;5083990;28;20059;-54
2022/05/15 10:52:39;;;;;;;22.93;6.57;;;22.50;88.60;;;;;;5064679;28;19928;-53
2022/05/15 10:58:44;;;;;;;16.85;5.68;;;22.70;83.30;;;;;;5080853;28;20189;-55
2022/05/15 11:01:29;;;;;;;21.85;6.40;;;22.50;84.10;;;;;;4979192;28;20054;-58
2022/05/15 11:04:29;;;;;;;16.88;5.75;;;22.70;83.80;;;;;;4980481;28;20626;-53
2022/05/15 11:07:22;;;;;;;18.02;5.72;;;22.80;81.60;;;;;;4959516;28;20062;-58
2022/05/15 11:10:26;;;;;;;16.10;5.90;;;22.60;81.60;;;;;;4902784;29;20435;-55
2022/05/15 11:13:12;;;;;;;12.50;5.18;;;22.60;82.90;;;;;;4903118;29;20524;-54
2022/05/15 11:15:46;;;;;;;15.63;6.22;;;22.40;82.90;;;;;;4902798;29;20068;-53
2022/05/15 11:18:27;;;;;;;16.88;5.50;;;22.50;82.90;;;;;;4901127;29;20208;-54
2022/05/15 11:21:01;;;;;;;19.95;5.85;;;22.50;82.30;;;;;;4887500;29;20563;-55
2022/05/15 11:23:54;;;;;;;18.17;5.80;;;22.40;82.50;;;;;;4886570;29;20083;-54
2022/05/15 11:26:30;;;;;;;16.23;5.70;;;22.50;82.40;;;;;;4828874;29;20066;-57
2022/05/15 11:28:59;;;;;;;15.27;5.50;;;22.60;82.90;;;;;;4828239;29;20066;-58
2022/05/15 11:31:32;;;;;;;17.70;5.22;;;22.70;83.60;;;;;;4812836;29;20057;-57
2022/05/15 11:34:04;;;;;;;16.30;5.53;;;22.70;84.20;;;;;;4827868;29;20061;-58
2022/05/15 11:36:39;;;;;;;19.37;7.30;;;22.80;84.30;;;;;;4865925;29;20521;-56
2022/05/15 11:39:26;;;;;;;20.67;6.25;;;22.90;82.50;;;;;;4864267;29;20313;-50
2022/05/15 11:42:14;;;;;;;15.85;5.75;;;22.90;82.00;;;;;;4865594;29;20081;-53
2022/05/15 11:44:46;;;;;;;14.35;4.82;;;23.00;83.50;;;;;;4875163;29;20064;-55
2022/05/15 11:47:34;;;;;;;21.48;6.50;;;23.30;83.50;;;;;;4923025;28;20065;-56
2022/05/15 11:50:10;;;;;;;18.63;6.70;;;23.40;80.40;;;;;;4944070;28;20133;-57
2022/05/15 11:52:53;;;;;;;18.38;5.75;;;23.40;81.50;;;;;;4960217;28;20043;-54
2022/05/15 11:55:40;;;;;;;20.02;6.70;;;23.40;82.00;;;;;;4944704;28;20057;-55
2022/05/15 11:58:23;;;;;;;14.32;5.22;;;23.50;81.70;;;;;;4959884;28;20166;-56
2022/05/15 12:01:17;;;;;;;14.98;5.57;;;23.60;80.40;;;;;;4945200;28;20349;-57
2022/05/15 12:03:49;;;;;;;18.27;4.50;;;23.40;79.00;;;;;;5034764;28;20095;-56
2022/05/15 12:06:18;;;;;;;16.75;4.78;;;23.10;79.00;;;;;;5082559;28;20591;-56
2022/05/15 12:08:51;;;;;;;16.23;6.10;;;23.10;79.40;;;;;;5081444;28;20059;-57
2022/05/15 12:11:32;;;;;;;14.95;5.22;;;23.10;80.10;;;;;;5086183;28;20137;-57
2022/05/15 12:14:00;;;;;;;12.98;5.10;;;23.10;80.80;;;;;;5064561;28;20063;-57
2022/05/15 12:16:25;;;;;;;14.68;4.97;;;23.10;80.10;;;;;;5082580;28;20050;-58
2022/05/15 12:19:02;;;;;;;17.63;5.63;;;23.00;80.70;;;;;;5062626;28;20055;-55
2022/05/15 12:21:46;;;;;;;13.13;4.25;;;22.90;81.00;;;;;;5081263;28;20126;-57
2022/05/15 12:24:27;;;;;;;14.85;5.32;;;22.90;81.10;;;;;;5081164;28;20044;-57
2022/05/15 12:26:53;;;;;;;11.10;4.65;;;22.90;79.20;;;;;;5081101;28;20044;-57
2022/05/15 12:29:42;;;;;;;14.75;4.88;;;22.80;78.90;;;;;;5080352;28;20106;-54
2022/05/15 12:32:20;;;;;;;12.98;4.47;;;22.80;80.30;;;;;;4984099;28;20105;-58
2022/05/15 12:34:48;;;;;;;13.02;4.63;;;22.80;78.50;;;;;;4978909;28;20062;-57
2022/05/15 12:37:44;;;;;;;16.05;5.22;;;22.90;78.70;;;;;;4962704;28;20100;-55
2022/05/15 12:40:11;;;;;;;13.77;5.35;;;22.70;77.40;;;;;;4978208;28;20061;-54
2022/05/15 12:42:42;;;;;;;11.70;3.97;;;22.80;78.20;;;;;;4977519;28;20169;-54
2022/05/15 12:45:13;;;;;;;14.93;4.88;;;22.70;78.30;;;;;;4978764;28;20547;-56
2022/05/15 12:47:41;;;;;;;12.90;3.70;;;22.70;77.80;;;;;;4978633;28;20116;-53
2022/05/15 12:50:21;;;;;;;11.35;4.10;;;22.70;76.80;;;;;;4978532;28;20057;-56
2022/05/15 12:52:55;;;;;;;15.38;5.10;;;22.60;77.60;;;;;;4962142;28;20166;-54
2022/05/15 12:55:25;;;;;;;15.95;4.50;;;22.50;77.30;;;;;;4978783;28;20065;-47
2022/05/15 12:57:55;;;;;;;14.38;5.03;;;22.50;78.70;;;;;;4978435;28;20061;-53
2022/05/15 13:00:30;;;;;;;14.18;4.78;;;22.50;78.60;;;;;;4976921;28;20120;-56
2022/05/15 13:02:59;;;;;;;15.50;5.07;;;22.60;78.40;;;;;;4985034;28;20133;-56
2022/05/15 13:05:32;;;;;;;11.93;4.47;;;22.70;78.50;;;;;;4977564;28;20508;-55
2022/05/15 13:08:01;;;;;;;12.60;4.40;;;22.70;77.70;;;;;;4982627;28;20149;-57
2022/05/15 13:10:28;;;;;;;12.13;4.38;;;22.60;75.60;;;;;;5076934;28;20528;-51
2022/05/15 13:12:57;;;;;;;16.63;5.13;;;22.60;77.00;;;;;;5062163;28;20052;-53
2022/05/15 13:15:28;;;;;;;13.60;4.10;;;22.60;77.80;;;;;;5062610;28;20060;-56